sensor_id;sensor_type;location;lat;lon;timestamp;P1;durP1;ratioP1;P2;durP2;ratioP2
11048;SDS011;5577;42.706;23.160;2023-01-28T00:01:44;7.53;;;5.67;;
11048;SDS011;5577;42.706;23.160;2023-01-28T00:04:28;8.80;;;6.17;;
11048;SDS011;5577;42.706;23.160;2023-01-28T00:07:12;7.97;;;6.10;;
11048;SDS011;5577;42.706;23.160;2023-01-28T00:09:56;8.07;;;5.97;;
11048;SDS011;5577;42.706;23.160;2023-01-28T00:12:40;7.87;;;6.23;;
11048;SDS011;5577;42.706;23.160;2023-01-28T00:15:24;7.73;;;6.63;;
11048;SDS011;5577;42.706;23.160;2023-01-28T00:18:08;6.87;;;5.97;;
11048;SDS011;5577;42.706;23.160;2023-01-28T00:21:06;6.23;;;4.90;;
11048;SDS011;5577;42.706;23.160;2023-01-28T00:23:53;7.50;;;5.67;;
11048;SDS011;5577;42.706;23.160;2023-01-28T00:26:38;7.17;;;5.27;;
11048;SDS011;5577;42.706;23.160;2023-01-28T00:29:22;6.97;;;5.50;;
11048;SDS011;5577;42.706;23.160;2023-01-28T00:32:06;7.27;;;5.63;;
11048;SDS011;5577;42.706;23.160;2023-01-28T00:34:50;7.07;;;5.60;;
11048;SDS011;5577;42.706;23.160;2023-01-28T00:37:35;7.63;;;5.73;;
11048;SDS011;5577;42.706;23.160;2023-01-28T00:40:20;6.80;;;5.40;;
11048;SDS011;5577;42.706;23.160;2023-01-28T00:43:04;6.43;;;5.63;;
11048;SDS011;5577;42.706;23.160;2023-01-28T00:45:48;6.13;;;5.20;;
11048;SDS011;5577;42.706;23.160;2023-01-28T00:48:32;6.73;;;5.37;;
11048;SDS011;5577;42.706;23.160;2023-01-28T00:51:17;6.77;;;5.67;;
11048;SDS011;5577;42.706;23.160;2023-01-28T00:54:03;6.27;;;5.57;;
11048;SDS011;5577;42.706;23.160;2023-01-28T00:56:47;6.57;;;5.00;;
11048;SDS011;5577;42.706;23.160;2023-01-28T00:59:31;6.63;;;4.90;;
11048;SDS011;5577;42.706;23.160;2023-01-28T01:02:15;7.70;;;5.57;;
11048;SDS011;5577;42.706;23.160;2023-01-28T01:04:59;8.43;;;6.07;;
11048;SDS011;5577;42.706;23.160;2023-01-28T01:07:43;7.70;;;5.60;;
11048;SDS011;5577;42.706;23.160;2023-01-28T01:10:27;6.63;;;5.43;;
11048;SDS011;5577;42.706;23.160;2023-01-28T01:13:12;7.17;;;5.63;;
11048;SDS011;5577;42.706;23.160;2023-01-28T01:18:47;8.57;;;6.13;;
11048;SDS011;5577;42.706;23.160;2023-01-28T01:21:32;6.80;;;5.67;;
11048;SDS011;5577;42.706;23.160;2023-01-28T01:24:16;6.33;;;5.60;;
11048;SDS011;5577;42.706;23.160;2023-01-28T01:27:00;9.40;;;6.20;;
11048;SDS011;5577;42.706;23.160;2023-01-28T01:29:44;7.37;;;6.00;;
11048;SDS011;5577;42.706;23.160;2023-01-28T01:32:31;6.83;;;5.43;;
11048;SDS011;5577;42.706;23.160;2023-01-28T01:35:17;6.50;;;5.83;;
11048;SDS011;5577;42.706;23.160;2023-01-28T01:38:01;8.23;;;6.30;;
11048;SDS011;5577;42.706;23.160;2023-01-28T01:40:45;7.13;;;6.00;;
11048;SDS011;5577;42.706;23.160;2023-01-28T01:46:37;6.63;;;5.50;;
11048;SDS011;5577;42.706;23.160;2023-01-28T01:49:26;7.83;;;5.73;;
11048;SDS011;5577;42.706;23.160;2023-01-28T01:52:12;8.37;;;5.50;;
11048;SDS011;5577;42.706;23.160;2023-01-28T01:55:00;7.50;;;5.73;;
11048;SDS011;5577;42.706;23.160;2023-01-28T01:57:49;8.07;;;6.23;;
11048;SDS011;5577;42.706;23.160;2023-01-28T02:00:37;7.10;;;5.93;;
11048;SDS011;5577;42.706;23.160;2023-01-28T02:03:25;7.60;;;6.20;;
11048;SDS011;5577;42.706;23.160;2023-01-28T02:06:14;8.13;;;6.57;;
11048;SDS011;5577;42.706;23.160;2023-01-28T02:08:58;7.40;;;5.80;;
11048;SDS011;5577;42.706;23.160;2023-01-28T02:11:42;8.83;;;5.77;;
11048;SDS011;5577;42.706;23.160;2023-01-28T02:14:27;5.87;;;5.27;;
11048;SDS011;5577;42.706;23.160;2023-01-28T02:17:13;6.67;;;5.03;;
11048;SDS011;5577;42.706;23.160;2023-01-28T02:23:01;6.40;;;5.30;;
11048;SDS011;5577;42.706;23.160;2023-01-28T02:26:09;6.50;;;5.80;;
11048;SDS011;5577;42.706;23.160;2023-01-28T02:32:16;6.03;;;5.43;;
11048;SDS011;5577;42.706;23.160;2023-01-28T02:35:30;6.97;;;5.70;;
11048;SDS011;5577;42.706;23.160;2023-01-28T02:38:27;6.40;;;5.70;;
11048;SDS011;5577;42.706;23.160;2023-01-28T02:41:36;7.23;;;5.40;;
11048;SDS011;5577;42.706;23.160;2023-01-28T02:44:25;6.97;;;5.23;;
11048;SDS011;5577;42.706;23.160;2023-01-28T02:47:10;6.37;;;5.27;;
11048;SDS011;5577;42.706;23.160;2023-01-28T02:50:14;5.90;;;5.20;;
11048;SDS011;5577;42.706;23.160;2023-01-28T02:56:31;7.00;;;5.37;;
11048;SDS011;5577;42.706;23.160;2023-01-28T02:59:35;5.83;;;5.03;;
11048;SDS011;5577;42.706;23.160;2023-01-28T03:02:41;6.93;;;5.30;;
11048;SDS011;5577;42.706;23.160;2023-01-28T03:05:42;6.50;;;5.50;;
11048;SDS011;5577;42.706;23.160;2023-01-28T03:08:50;8.00;;;5.77;;
11048;SDS011;5577;42.706;23.160;2023-01-28T03:15:04;7.13;;;5.17;;
11048;SDS011;5577;42.706;23.160;2023-01-28T03:18:14;6.93;;;5.50;;
11048;SDS011;5577;42.706;23.160;2023-01-28T03:21:23;7.07;;;5.40;;
11048;SDS011;5577;42.706;23.160;2023-01-28T03:24:32;8.00;;;5.83;;
11048;SDS011;5577;42.706;23.160;2023-01-28T03:27:42;7.77;;;6.00;;
11048;SDS011;5577;42.706;23.160;2023-01-28T03:30:58;7.43;;;5.30;;
11048;SDS011;5577;42.706;23.160;2023-01-28T03:34:09;5.63;;;4.53;;
11048;SDS011;5577;42.706;23.160;2023-01-28T03:37:13;6.53;;;5.07;;
11048;SDS011;5577;42.706;23.160;2023-01-28T03:40:01;6.90;;;5.37;;
11048;SDS011;5577;42.706;23.160;2023-01-28T03:42:49;6.20;;;5.20;;
11048;SDS011;5577;42.706;23.160;2023-01-28T03:45:35;6.37;;;5.20;;
11048;SDS011;5577;42.706;23.160;2023-01-28T03:48:21;5.97;;;5.10;;
11048;SDS011;5577;42.706;23.160;2023-01-28T03:51:09;6.10;;;5.33;;
11048;SDS011;5577;42.706;23.160;2023-01-28T03:53:53;7.10;;;5.80;;
11048;SDS011;5577;42.706;23.160;2023-01-28T03:56:38;7.30;;;5.60;;
11048;SDS011;5577;42.706;23.160;2023-01-28T03:59:23;6.93;;;5.60;;
11048;SDS011;5577;42.706;23.160;2023-01-28T04:02:07;6.10;;;5.10;;
11048;SDS011;5577;42.706;23.160;2023-01-28T04:04:53;6.63;;;5.60;;
11048;SDS011;5577;42.706;23.160;2023-01-28T04:07:37;7.03;;;5.90;;
11048;SDS011;5577;42.706;23.160;2023-01-28T04:10:21;8.07;;;5.97;;
11048;SDS011;5577;42.706;23.160;2023-01-28T04:13:05;7.20;;;4.97;;
11048;SDS011;5577;42.706;23.160;2023-01-28T04:15:50;6.80;;;5.23;;
11048;SDS011;5577;42.706;23.160;2023-01-28T04:18:34;6.43;;;4.70;;
11048;SDS011;5577;42.706;23.160;2023-01-28T04:21:18;7.03;;;5.10;;
11048;SDS011;5577;42.706;23.160;2023-01-28T04:24:03;5.80;;;4.00;;
11048;SDS011;5577;42.706;23.160;2023-01-28T04:26:47;7.93;;;5.90;;
11048;SDS011;5577;42.706;23.160;2023-01-28T04:29:31;6.70;;;5.40;;
11048;SDS011;5577;42.706;23.160;2023-01-28T04:32:15;6.30;;;5.33;;
11048;SDS011;5577;42.706;23.160;2023-01-28T04:34:59;6.67;;;5.53;;
11048;SDS011;5577;42.706;23.160;2023-01-28T04:37:43;7.03;;;5.20;;
11048;SDS011;5577;42.706;23.160;2023-01-28T04:40:28;6.87;;;5.63;;
11048;SDS011;5577;42.706;23.160;2023-01-28T04:43:12;6.73;;;5.23;;
11048;SDS011;5577;42.706;23.160;2023-01-28T04:45:56;7.40;;;5.70;;
11048;SDS011;5577;42.706;23.160;2023-01-28T04:48:40;7.27;;;5.53;;
11048;SDS011;5577;42.706;23.160;2023-01-28T04:51:25;7.37;;;5.90;;
11048;SDS011;5577;42.706;23.160;2023-01-28T04:54:09;5.90;;;4.70;;
11048;SDS011;5577;42.706;23.160;2023-01-28T04:56:53;7.30;;;5.77;;
11048;SDS011;5577;42.706;23.160;2023-01-28T04:59:37;11.10;;;8.13;;
11048;SDS011;5577;42.706;23.160;2023-01-28T05:02:21;8.20;;;6.40;;
11048;SDS011;5577;42.706;23.160;2023-01-28T05:05:05;7.10;;;5.67;;
11048;SDS011;5577;42.706;23.160;2023-01-28T05:07:52;8.10;;;6.57;;
11048;SDS011;5577;42.706;23.160;2023-01-28T05:10:37;7.67;;;5.97;;
11048;SDS011;5577;42.706;23.160;2023-01-28T05:13:22;7.90;;;5.93;;
11048;SDS011;5577;42.706;23.160;2023-01-28T05:16:06;7.17;;;5.73;;
11048;SDS011;5577;42.706;23.160;2023-01-28T05:18:50;7.63;;;6.73;;
11048;SDS011;5577;42.706;23.160;2023-01-28T05:21:34;8.37;;;6.67;;
11048;SDS011;5577;42.706;23.160;2023-01-28T05:24:18;9.00;;;7.23;;
11048;SDS011;5577;42.706;23.160;2023-01-28T05:27:04;7.33;;;6.07;;
11048;SDS011;5577;42.706;23.160;2023-01-28T05:29:48;8.17;;;6.60;;
11048;SDS011;5577;42.706;23.160;2023-01-28T05:32:32;7.70;;;5.80;;
11048;SDS011;5577;42.706;23.160;2023-01-28T05:35:16;6.80;;;6.10;;
11048;SDS011;5577;42.706;23.160;2023-01-28T05:38:00;7.03;;;5.67;;
11048;SDS011;5577;42.706;23.160;2023-01-28T05:40:45;8.97;;;6.40;;
11048;SDS011;5577;42.706;23.160;2023-01-28T05:43:30;9.07;;;7.20;;
11048;SDS011;5577;42.706;23.160;2023-01-28T05:46:14;7.50;;;5.63;;
11048;SDS011;5577;42.706;23.160;2023-01-28T05:48:58;7.53;;;5.77;;
11048;SDS011;5577;42.706;23.160;2023-01-28T05:51:42;7.83;;;5.67;;
11048;SDS011;5577;42.706;23.160;2023-01-28T05:54:27;6.83;;;5.60;;
11048;SDS011;5577;42.706;23.160;2023-01-28T05:57:11;7.30;;;5.80;;
11048;SDS011;5577;42.706;23.160;2023-01-28T05:59:55;8.23;;;5.60;;
11048;SDS011;5577;42.706;23.160;2023-01-28T06:02:40;6.27;;;5.23;;
11048;SDS011;5577;42.706;23.160;2023-01-28T06:05:25;7.47;;;6.27;;
11048;SDS011;5577;42.706;23.160;2023-01-28T06:08:09;6.33;;;5.30;;
11048;SDS011;5577;42.706;23.160;2023-01-28T06:10:53;8.27;;;5.67;;
11048;SDS011;5577;42.706;23.160;2023-01-28T06:13:37;6.50;;;5.07;;
11048;SDS011;5577;42.706;23.160;2023-01-28T06:16:21;8.27;;;6.73;;
11048;SDS011;5577;42.706;23.160;2023-01-28T06:19:04;7.47;;;5.60;;
11048;SDS011;5577;42.706;23.160;2023-01-28T06:21:49;7.57;;;6.03;;
11048;SDS011;5577;42.706;23.160;2023-01-28T06:24:33;9.57;;;6.40;;
11048;SDS011;5577;42.706;23.160;2023-01-28T06:27:17;8.43;;;6.00;;
11048;SDS011;5577;42.706;23.160;2023-01-28T06:30:00;9.17;;;6.57;;
11048;SDS011;5577;42.706;23.160;2023-01-28T06:32:45;7.37;;;5.90;;
11048;SDS011;5577;42.706;23.160;2023-01-28T06:35:29;7.80;;;6.13;;
11048;SDS011;5577;42.706;23.160;2023-01-28T06:38:13;8.57;;;6.80;;
11048;SDS011;5577;42.706;23.160;2023-01-28T06:40:56;9.17;;;6.63;;
11048;SDS011;5577;42.706;23.160;2023-01-28T06:43:41;8.70;;;6.80;;
11048;SDS011;5577;42.706;23.160;2023-01-28T06:46:25;10.40;;;7.60;;
11048;SDS011;5577;42.706;23.160;2023-01-28T06:49:09;9.30;;;7.17;;
11048;SDS011;5577;42.706;23.160;2023-01-28T06:51:53;9.53;;;6.87;;
11048;SDS011;5577;42.706;23.160;2023-01-28T06:54:37;8.00;;;6.50;;
11048;SDS011;5577;42.706;23.160;2023-01-28T06:57:21;7.87;;;6.17;;
11048;SDS011;5577;42.706;23.160;2023-01-28T07:00:05;9.00;;;7.30;;
11048;SDS011;5577;42.706;23.160;2023-01-28T07:02:54;9.07;;;6.93;;
11048;SDS011;5577;42.706;23.160;2023-01-28T07:05:39;9.13;;;6.77;;
11048;SDS011;5577;42.706;23.160;2023-01-28T07:08:23;9.20;;;7.33;;
11048;SDS011;5577;42.706;23.160;2023-01-28T07:11:07;9.00;;;6.90;;
11048;SDS011;5577;42.706;23.160;2023-01-28T07:13:51;9.30;;;7.13;;
11048;SDS011;5577;42.706;23.160;2023-01-28T07:16:35;8.17;;;6.80;;
11048;SDS011;5577;42.706;23.160;2023-01-28T07:19:19;9.07;;;7.53;;
11048;SDS011;5577;42.706;23.160;2023-01-28T07:22:03;9.77;;;7.10;;
11048;SDS011;5577;42.706;23.160;2023-01-28T07:24:47;11.87;;;7.93;;
11048;SDS011;5577;42.706;23.160;2023-01-28T07:27:31;9.30;;;7.23;;
11048;SDS011;5577;42.706;23.160;2023-01-28T07:30:16;10.87;;;7.93;;
11048;SDS011;5577;42.706;23.160;2023-01-28T07:33:01;9.37;;;6.87;;
11048;SDS011;5577;42.706;23.160;2023-01-28T07:35:46;9.00;;;6.73;;
11048;SDS011;5577;42.706;23.160;2023-01-28T07:38:30;8.40;;;6.00;;
11048;SDS011;5577;42.706;23.160;2023-01-28T07:41:14;8.77;;;6.20;;
11048;SDS011;5577;42.706;23.160;2023-01-28T07:43:58;12.70;;;9.23;;
11048;SDS011;5577;42.706;23.160;2023-01-28T07:46:42;13.37;;;8.23;;
11048;SDS011;5577;42.706;23.160;2023-01-28T07:49:26;10.17;;;7.73;;
11048;SDS011;5577;42.706;23.160;2023-01-28T07:52:11;10.70;;;7.17;;
11048;SDS011;5577;42.706;23.160;2023-01-28T07:54:55;11.20;;;7.83;;
11048;SDS011;5577;42.706;23.160;2023-01-28T07:57:46;10.03;;;7.23;;
11048;SDS011;5577;42.706;23.160;2023-01-28T08:00:37;8.90;;;7.87;;
11048;SDS011;5577;42.706;23.160;2023-01-28T08:03:22;10.70;;;8.33;;
11048;SDS011;5577;42.706;23.160;2023-01-28T08:06:06;8.90;;;6.90;;
11048;SDS011;5577;42.706;23.160;2023-01-28T08:08:50;10.30;;;7.57;;
11048;SDS011;5577;42.706;23.160;2023-01-28T08:11:36;9.53;;;8.20;;
11048;SDS011;5577;42.706;23.160;2023-01-28T08:14:21;10.67;;;8.67;;
11048;SDS011;5577;42.706;23.160;2023-01-28T08:17:05;13.33;;;9.97;;
11048;SDS011;5577;42.706;23.160;2023-01-28T08:19:49;8.77;;;7.53;;
11048;SDS011;5577;42.706;23.160;2023-01-28T08:22:33;9.70;;;7.40;;
11048;SDS011;5577;42.706;23.160;2023-01-28T08:25:17;8.10;;;6.47;;
11048;SDS011;5577;42.706;23.160;2023-01-28T08:28:02;7.90;;;6.87;;
11048;SDS011;5577;42.706;23.160;2023-01-28T08:30:46;10.50;;;7.00;;
11048;SDS011;5577;42.706;23.160;2023-01-28T08:33:30;15.93;;;11.00;;
11048;SDS011;5577;42.706;23.160;2023-01-28T08:36:15;10.40;;;7.67;;
11048;SDS011;5577;42.706;23.160;2023-01-28T08:38:58;8.00;;;6.40;;
11048;SDS011;5577;42.706;23.160;2023-01-28T08:41:42;10.77;;;7.33;;
11048;SDS011;5577;42.706;23.160;2023-01-28T08:44:26;9.30;;;6.50;;
11048;SDS011;5577;42.706;23.160;2023-01-28T08:47:10;8.97;;;6.73;;
11048;SDS011;5577;42.706;23.160;2023-01-28T08:49:54;8.70;;;6.80;;
11048;SDS011;5577;42.706;23.160;2023-01-28T08:52:38;9.67;;;6.47;;
11048;SDS011;5577;42.706;23.160;2023-01-28T08:55:23;10.27;;;6.90;;
11048;SDS011;5577;42.706;23.160;2023-01-28T08:58:15;10.77;;;7.50;;
11048;SDS011;5577;42.706;23.160;2023-01-28T09:01:04;10.40;;;6.70;;
11048;SDS011;5577;42.706;23.160;2023-01-28T09:03:49;10.63;;;7.03;;
11048;SDS011;5577;42.706;23.160;2023-01-28T09:06:33;8.57;;;6.87;;
11048;SDS011;5577;42.706;23.160;2023-01-28T09:09:17;10.83;;;7.60;;
11048;SDS011;5577;42.706;23.160;2023-01-28T09:12:01;12.00;;;8.60;;
11048;SDS011;5577;42.706;23.160;2023-01-28T09:14:45;10.40;;;7.67;;
11048;SDS011;5577;42.706;23.160;2023-01-28T09:17:29;10.93;;;8.23;;
11048;SDS011;5577;42.706;23.160;2023-01-28T09:20:13;9.17;;;7.27;;
11048;SDS011;5577;42.706;23.160;2023-01-28T09:22:57;10.50;;;7.90;;
11048;SDS011;5577;42.706;23.160;2023-01-28T09:25:41;11.33;;;7.37;;
11048;SDS011;5577;42.706;23.160;2023-01-28T09:28:25;9.10;;;7.17;;
11048;SDS011;5577;42.706;23.160;2023-01-28T09:31:10;10.43;;;7.17;;
11048;SDS011;5577;42.706;23.160;2023-01-28T09:33:55;10.43;;;7.33;;
11048;SDS011;5577;42.706;23.160;2023-01-28T09:36:39;8.87;;;7.20;;
11048;SDS011;5577;42.706;23.160;2023-01-28T09:39:23;9.33;;;7.53;;
11048;SDS011;5577;42.706;23.160;2023-01-28T09:45:07;8.87;;;7.17;;
11048;SDS011;5577;42.706;23.160;2023-01-28T09:48:15;9.30;;;7.57;;
11048;SDS011;5577;42.706;23.160;2023-01-28T09:51:08;12.13;;;8.60;;
11048;SDS011;5577;42.706;23.160;2023-01-28T09:54:04;10.40;;;7.60;;
11048;SDS011;5577;42.706;23.160;2023-01-28T09:57:00;10.17;;;7.07;;
11048;SDS011;5577;42.706;23.160;2023-01-28T10:00:10;10.80;;;7.60;;
11048;SDS011;5577;42.706;23.160;2023-01-28T10:18:54;10.37;;;7.83;;
11048;SDS011;5577;42.706;23.160;2023-01-28T10:21:54;11.43;;;8.00;;
11048;SDS011;5577;42.706;23.160;2023-01-28T10:24:46;11.17;;;8.17;;
11048;SDS011;5577;42.706;23.160;2023-01-28T10:27:38;12.23;;;8.60;;
11048;SDS011;5577;42.706;23.160;2023-01-28T10:36:22;10.33;;;7.97;;
11048;SDS011;5577;42.706;23.160;2023-01-28T10:39:07;9.90;;;7.17;;
11048;SDS011;5577;42.706;23.160;2023-01-28T10:41:54;10.50;;;8.07;;
11048;SDS011;5577;42.706;23.160;2023-01-28T10:44:39;9.83;;;7.83;;
11048;SDS011;5577;42.706;23.160;2023-01-28T10:50:52;8.70;;;7.20;;
11048;SDS011;5577;42.706;23.160;2023-01-28T10:53:45;6.90;;;4.60;;
11048;SDS011;5577;42.706;23.160;2023-01-28T10:56:30;9.73;;;7.57;;
11048;SDS011;5577;42.706;23.160;2023-01-28T10:59:28;8.37;;;6.40;;
11048;SDS011;5577;42.706;23.160;2023-01-28T11:02:30;8.70;;;6.37;;
11048;SDS011;5577;42.706;23.160;2023-01-28T11:05:24;7.97;;;6.20;;
11048;SDS011;5577;42.706;23.160;2023-01-28T11:08:14;8.63;;;6.70;;
11048;SDS011;5577;42.706;23.160;2023-01-28T11:11:00;8.33;;;6.30;;
11048;SDS011;5577;42.706;23.160;2023-01-28T11:13:50;11.37;;;7.57;;
11048;SDS011;5577;42.706;23.160;2023-01-28T11:16:37;8.17;;;7.03;;
11048;SDS011;5577;42.706;23.160;2023-01-28T11:19:26;9.60;;;7.17;;
11048;SDS011;5577;42.706;23.160;2023-01-28T11:22:22;9.33;;;7.70;;
11048;SDS011;5577;42.706;23.160;2023-01-28T11:25:29;9.33;;;7.47;;
11048;SDS011;5577;42.706;23.160;2023-01-28T11:28:19;9.20;;;7.63;;
11048;SDS011;5577;42.706;23.160;2023-01-28T11:31:13;9.10;;;7.27;;
11048;SDS011;5577;42.706;23.160;2023-01-28T11:34:00;9.53;;;7.67;;
11048;SDS011;5577;42.706;23.160;2023-01-28T11:36:51;9.93;;;7.27;;
11048;SDS011;5577;42.706;23.160;2023-01-28T11:39:48;9.90;;;8.07;;
11048;SDS011;5577;42.706;23.160;2023-01-28T11:42:59;9.70;;;7.70;;
11048;SDS011;5577;42.706;23.160;2023-01-28T11:52:32;10.43;;;7.00;;
11048;SDS011;5577;42.706;23.160;2023-01-28T12:08:21;11.67;;;8.63;;
11048;SDS011;5577;42.706;23.160;2023-01-28T12:11:29;11.50;;;8.63;;
11048;SDS011;5577;42.706;23.160;2023-01-28T12:20:55;10.63;;;8.27;;
11048;SDS011;5577;42.706;23.160;2023-01-28T12:33:53;10.70;;;8.53;;
11048;SDS011;5577;42.706;23.160;2023-01-28T12:45:54;12.43;;;9.23;;
11048;SDS011;5577;42.706;23.160;2023-01-28T12:51:56;13.17;;;9.40;;
11048;SDS011;5577;42.706;23.160;2023-01-28T12:54:57;12.40;;;8.97;;
11048;SDS011;5577;42.706;23.160;2023-01-28T12:57:47;12.90;;;9.37;;
11048;SDS011;5577;42.706;23.160;2023-01-28T13:00:35;11.43;;;9.07;;
11048;SDS011;5577;42.706;23.160;2023-01-28T13:06:45;11.27;;;8.70;;
11048;SDS011;5577;42.706;23.160;2023-01-28T13:09:29;11.87;;;9.50;;
11048;SDS011;5577;42.706;23.160;2023-01-28T13:12:17;12.20;;;9.77;;
11048;SDS011;5577;42.706;23.160;2023-01-28T13:15:02;11.70;;;9.50;;
11048;SDS011;5577;42.706;23.160;2023-01-28T13:17:59;11.07;;;8.77;;
11048;SDS011;5577;42.706;23.160;2023-01-28T13:20:47;11.77;;;8.80;;
11048;SDS011;5577;42.706;23.160;2023-01-28T13:23:38;11.87;;;9.40;;
11048;SDS011;5577;42.706;23.160;2023-01-28T13:29:29;13.77;;;11.50;;
11048;SDS011;5577;42.706;23.160;2023-01-28T13:32:26;10.93;;;8.33;;
11048;SDS011;5577;42.706;23.160;2023-01-28T13:35:27;15.03;;;11.43;;
11048;SDS011;5577;42.706;23.160;2023-01-28T13:38:17;12.97;;;10.13;;
11048;SDS011;5577;42.706;23.160;2023-01-28T13:41:03;11.03;;;8.03;;
11048;SDS011;5577;42.706;23.160;2023-01-28T13:43:49;11.00;;;8.67;;
11048;SDS011;5577;42.706;23.160;2023-01-28T13:46:33;10.47;;;9.07;;
11048;SDS011;5577;42.706;23.160;2023-01-28T13:49:20;11.07;;;9.10;;
11048;SDS011;5577;42.706;23.160;2023-01-28T13:52:34;10.63;;;8.37;;
11048;SDS011;5577;42.706;23.160;2023-01-28T13:55:30;10.33;;;8.27;;
11048;SDS011;5577;42.706;23.160;2023-01-28T14:07:28;11.87;;;8.30;;
11048;SDS011;5577;42.706;23.160;2023-01-28T14:19:04;14.20;;;9.57;;
11048;SDS011;5577;42.706;23.160;2023-01-28T14:21:56;13.70;;;9.90;;
11048;SDS011;5577;42.706;23.160;2023-01-28T14:24:40;11.97;;;9.57;;
11048;SDS011;5577;42.706;23.160;2023-01-28T14:27:31;13.10;;;9.70;;
11048;SDS011;5577;42.706;23.160;2023-01-28T14:30:29;13.03;;;9.57;;
11048;SDS011;5577;42.706;23.160;2023-01-28T14:33:25;11.60;;;9.50;;
11048;SDS011;5577;42.706;23.160;2023-01-28T14:36:11;12.67;;;9.27;;
11048;SDS011;5577;42.706;23.160;2023-01-28T14:38:55;13.63;;;9.60;;
11048;SDS011;5577;42.706;23.160;2023-01-28T14:41:41;12.13;;;9.17;;
11048;SDS011;5577;42.706;23.160;2023-01-28T14:47:32;10.63;;;8.03;;
11048;SDS011;5577;42.706;23.160;2023-01-28T14:50:42;13.10;;;9.23;;
11048;SDS011;5577;42.706;23.160;2023-01-28T14:56:43;11.50;;;8.73;;
11048;SDS011;5577;42.706;23.160;2023-01-28T14:59:56;11.13;;;8.40;;
11048;SDS011;5577;42.706;23.160;2023-01-28T15:02:41;12.23;;;9.57;;
11048;SDS011;5577;42.706;23.160;2023-01-28T15:05:27;13.80;;;10.27;;
11048;SDS011;5577;42.706;23.160;2023-01-28T15:08:22;12.70;;;9.13;;
11048;SDS011;5577;42.706;23.160;2023-01-28T15:11:10;12.97;;;9.53;;
11048;SDS011;5577;42.706;23.160;2023-01-28T15:14:00;16.37;;;12.57;;
11048;SDS011;5577;42.706;23.160;2023-01-28T15:16:48;14.03;;;10.70;;
11048;SDS011;5577;42.706;23.160;2023-01-28T15:19:33;11.07;;;9.00;;
11048;SDS011;5577;42.706;23.160;2023-01-28T15:22:21;13.27;;;9.67;;
11048;SDS011;5577;42.706;23.160;2023-01-28T15:25:15;12.27;;;9.23;;
11048;SDS011;5577;42.706;23.160;2023-01-28T15:28:01;14.13;;;10.50;;
11048;SDS011;5577;42.706;23.160;2023-01-28T15:30:45;15.07;;;11.27;;
11048;SDS011;5577;42.706;23.160;2023-01-28T15:33:29;15.37;;;11.23;;
11048;SDS011;5577;42.706;23.160;2023-01-28T15:36:13;11.73;;;8.40;;
11048;SDS011;5577;42.706;23.160;2023-01-28T15:38:57;12.70;;;9.70;;
11048;SDS011;5577;42.706;23.160;2023-01-28T15:41:41;13.80;;;9.87;;
11048;SDS011;5577;42.706;23.160;2023-01-28T15:44:30;11.77;;;9.13;;
11048;SDS011;5577;42.706;23.160;2023-01-28T15:47:21;15.77;;;10.20;;
11048;SDS011;5577;42.706;23.160;2023-01-28T15:50:13;15.80;;;10.47;;
11048;SDS011;5577;42.706;23.160;2023-01-28T15:53:07;12.27;;;9.10;;
11048;SDS011;5577;42.706;23.160;2023-01-28T15:56:02;10.77;;;8.17;;
11048;SDS011;5577;42.706;23.160;2023-01-28T15:58:48;11.23;;;8.57;;
11048;SDS011;5577;42.706;23.160;2023-01-28T16:01:32;10.43;;;8.27;;
11048;SDS011;5577;42.706;23.160;2023-01-28T16:04:23;14.10;;;9.90;;
11048;SDS011;5577;42.706;23.160;2023-01-28T16:07:12;12.73;;;8.97;;
11048;SDS011;5577;42.706;23.160;2023-01-28T16:09:56;13.17;;;9.03;;
11048;SDS011;5577;42.706;23.160;2023-01-28T16:12:46;11.57;;;8.57;;
11048;SDS011;5577;42.706;23.160;2023-01-28T16:15:35;11.53;;;8.03;;
11048;SDS011;5577;42.706;23.160;2023-01-28T16:18:38;11.13;;;7.90;;
11048;SDS011;5577;42.706;23.160;2023-01-28T16:21:34;10.87;;;7.73;;
11048;SDS011;5577;42.706;23.160;2023-01-28T16:24:27;10.23;;;8.30;;
11048;SDS011;5577;42.706;23.160;2023-01-28T16:27:23;11.13;;;8.67;;
11048;SDS011;5577;42.706;23.160;2023-01-28T16:30:10;15.03;;;10.47;;
11048;SDS011;5577;42.706;23.160;2023-01-28T16:32:54;15.30;;;10.20;;
11048;SDS011;5577;42.706;23.160;2023-01-28T16:35:38;15.37;;;11.23;;
11048;SDS011;5577;42.706;23.160;2023-01-28T16:38:22;11.60;;;8.80;;
11048;SDS011;5577;42.706;23.160;2023-01-28T16:44:24;10.07;;;7.77;;
11048;SDS011;5577;42.706;23.160;2023-01-28T16:47:08;8.07;;;6.53;;
11048;SDS011;5577;42.706;23.160;2023-01-28T16:49:52;9.37;;;7.23;;
11048;SDS011;5577;42.706;23.160;2023-01-28T16:52:36;10.57;;;7.63;;
11048;SDS011;5577;42.706;23.160;2023-01-28T16:55:21;7.83;;;6.57;;
11048;SDS011;5577;42.706;23.160;2023-01-28T16:58:06;9.13;;;7.07;;
11048;SDS011;5577;42.706;23.160;2023-01-28T17:00:52;8.90;;;6.63;;
11048;SDS011;5577;42.706;23.160;2023-01-28T17:03:36;9.53;;;7.10;;
11048;SDS011;5577;42.706;23.160;2023-01-28T17:06:21;9.10;;;7.17;;
11048;SDS011;5577;42.706;23.160;2023-01-28T17:09:05;10.73;;;7.83;;
11048;SDS011;5577;42.706;23.160;2023-01-28T17:11:49;9.13;;;7.10;;
11048;SDS011;5577;42.706;23.160;2023-01-28T17:14:33;11.17;;;7.87;;
11048;SDS011;5577;42.706;23.160;2023-01-28T17:17:17;10.50;;;8.10;;
11048;SDS011;5577;42.706;23.160;2023-01-28T17:20:01;10.57;;;7.67;;
11048;SDS011;5577;42.706;23.160;2023-01-28T17:22:45;10.13;;;8.07;;
11048;SDS011;5577;42.706;23.160;2023-01-28T17:25:29;9.73;;;7.33;;
11048;SDS011;5577;42.706;23.160;2023-01-28T17:28:13;11.57;;;8.17;;
11048;SDS011;5577;42.706;23.160;2023-01-28T17:30:57;10.07;;;7.50;;
11048;SDS011;5577;42.706;23.160;2023-01-28T17:33:41;9.90;;;7.90;;
11048;SDS011;5577;42.706;23.160;2023-01-28T17:36:25;13.27;;;8.47;;
11048;SDS011;5577;42.706;23.160;2023-01-28T17:39:09;14.77;;;9.50;;
11048;SDS011;5577;42.706;23.160;2023-01-28T17:41:53;19.87;;;13.33;;
11048;SDS011;5577;42.706;23.160;2023-01-28T17:44:38;21.37;;;14.47;;
11048;SDS011;5577;42.706;23.160;2023-01-28T17:47:22;19.53;;;12.70;;
11048;SDS011;5577;42.706;23.160;2023-01-28T17:50:06;18.03;;;12.20;;
11048;SDS011;5577;42.706;23.160;2023-01-28T17:52:54;16.70;;;11.20;;
11048;SDS011;5577;42.706;23.160;2023-01-28T17:55:38;15.67;;;10.90;;
11048;SDS011;5577;42.706;23.160;2023-01-28T17:58:22;23.87;;;14.90;;
11048;SDS011;5577;42.706;23.160;2023-01-28T18:01:06;19.63;;;13.27;;
11048;SDS011;5577;42.706;23.160;2023-01-28T18:03:53;15.30;;;10.50;;
11048;SDS011;5577;42.706;23.160;2023-01-28T18:06:38;21.67;;;13.77;;
11048;SDS011;5577;42.706;23.160;2023-01-28T18:09:22;18.17;;;11.60;;
11048;SDS011;5577;42.706;23.160;2023-01-28T18:12:07;16.30;;;10.63;;
11048;SDS011;5577;42.706;23.160;2023-01-28T18:14:51;15.03;;;9.80;;
11048;SDS011;5577;42.706;23.160;2023-01-28T18:17:35;12.33;;;9.03;;
11048;SDS011;5577;42.706;23.160;2023-01-28T18:20:19;10.67;;;8.17;;
11048;SDS011;5577;42.706;23.160;2023-01-28T18:23:03;11.77;;;8.90;;
11048;SDS011;5577;42.706;23.160;2023-01-28T18:25:47;12.83;;;9.57;;
11048;SDS011;5577;42.706;23.160;2023-01-28T18:28:31;11.80;;;8.70;;
11048;SDS011;5577;42.706;23.160;2023-01-28T18:31:15;10.17;;;8.20;;
11048;SDS011;5577;42.706;23.160;2023-01-28T18:33:59;11.53;;;7.90;;
11048;SDS011;5577;42.706;23.160;2023-01-28T18:36:46;13.40;;;9.77;;
11048;SDS011;5577;42.706;23.160;2023-01-28T18:39:30;12.30;;;8.37;;
11048;SDS011;5577;42.706;23.160;2023-01-28T18:42:14;13.50;;;9.43;;
11048;SDS011;5577;42.706;23.160;2023-01-28T18:44:59;14.37;;;10.57;;
11048;SDS011;5577;42.706;23.160;2023-01-28T18:47:42;13.40;;;10.17;;
11048;SDS011;5577;42.706;23.160;2023-01-28T18:50:26;17.83;;;11.47;;
11048;SDS011;5577;42.706;23.160;2023-01-28T18:53:10;12.03;;;9.27;;